»·PEaware :: N576TB L52-L88

N576TB :: L52-L88

FLIGHT INFORMATION

Flight Status: Arrived
Operator: Privately registered:
United States
More flights under this callsign
Pilot: Anonymous 8274 (8274)
Aircraft: BEECH AIRCRAFT DEBONAIR BONANZA
(BE33)
More flights by this aircraft type
Origin: L52 Oceano Co
United States
Destination: L88 New Cuyama
United States
More flights between these airports :: More routes between these airports
Route:
File this flight plan on PilotEdge
Remarks:
Altitude:
(Current/Filed)
7,500ft
Speed:
(Current/Filed)
160kts
Departed: 04-Nov-18 12:52 PM
Arrived: 04-Nov-18 01:19 PM
Distance/Time
Traveled:
47nm/0:27
Distance/Time
To Go:
Arrived

Flight Plot

Page will automatically refresh every two minutes.


Map Options




Map Legend


Flown Route
Filed Route
Departure Airport
Arrival Airport
Navaid (VOR, NDB)
Fix

Horizontal Profiles

Position Reports

Time Latitude Longitude Heading Altitude Ground
Speed
04-Nov-18 12:43 35.103155 -120.624083 31 17ft 0kts
04-Nov-18 12:44 35.103155 -120.624083 31 17ft 0kts
04-Nov-18 12:45 35.103155 -120.624083 31 17ft 0kts
04-Nov-18 12:46 35.103155 -120.624083 31 17ft 0kts
04-Nov-18 12:47 35.103155 -120.624083 31 17ft 0kts
04-Nov-18 12:48 35.103155 -120.624083 31 17ft 0kts
04-Nov-18 12:49 35.102934 -120.623838 210 17ft 0kts
04-Nov-18 12:50 35.102934 -120.623838 210 17ft 0kts
04-Nov-18 12:51 35.102934 -120.623838 210 17ft 0kts
04-Nov-18 12:52 35.102693 -120.624004 212 17ft 8kts
04-Nov-18 12:53 35.100001 -120.620419 120 17ft 25kts
04-Nov-18 12:54 35.099574 -120.619495 46 17ft 3kts
04-Nov-18 12:55 35.106399 -120.632711 298 475ft 85kts
04-Nov-18 12:56 35.096942 -120.651205 172 1474ft 115kts
04-Nov-18 12:57 35.082705 -120.614728 103 2394ft 124kts
04-Nov-18 12:58 35.076123 -120.573951 93 3374ft 122kts
04-Nov-18 12:59 35.070041 -120.532227 95 4227ft 127kts
04-Nov-18 13:00 35.047437 -120.504905 173 5043ft 128kts
04-Nov-18 13:01 35.016519 -120.477960 144 5526ft 148kts
04-Nov-18 13:02 34.992440 -120.438757 106 5723ft 158kts
04-Nov-18 13:03 34.981222 -120.383898 101 5603ft 167kts
04-Nov-18 13:04 34.988930 -120.336026 59 5512ft 158kts
04-Nov-18 13:05 35.011508 -120.291836 64 5214ft 171kts
04-Nov-18 13:06 35.022772 -120.239764 82 5441ft 155kts
04-Nov-18 13:07 35.011018 -120.188247 104 5521ft 162kts
04-Nov-18 13:08 35.002422 -120.133004 98 5544ft 164kts
04-Nov-18 13:09 35.009232 -120.081128 53 5655ft 153kts
04-Nov-18 13:10 35.032744 -120.037761 51 5635ft 155kts
04-Nov-18 13:11 35.060108 -119.996683 42 5618ft 157kts
04-Nov-18 13:12 35.075062 -119.951196 113 5636ft 170kts
04-Nov-18 13:13 35.049772 -119.903275 115 5684ft 167kts
04-Nov-18 13:14 35.028735 -119.852705 126 5687ft 165kts
04-Nov-18 13:15 35.000571 -119.808246 126 5225ft 166kts
04-Nov-18 13:16 34.978744 -119.761557 118 4755ft 155kts
04-Nov-18 13:17 34.944982 -119.754047 206 4145ft 145kts
04-Nov-18 13:18 34.930207 -119.723854 69 3483ft 157kts
04-Nov-18 13:19 34.924599 -119.677868 119 3163ft 127kts
04-Nov-18 13:20 34.931549 -119.663583 285 2642ft 85kts
04-Nov-18 13:21 34.940248 -119.686404 295 2174ft 52kts
04-Nov-18 13:22 34.942832 -119.691043 198 2152ft 0kts
04-Nov-18 13:23 34.942832 -119.691043 198 2152ft 0kts
04-Nov-18 13:24 34.942832 -119.691043 198 2152ft 0kts
04-Nov-18 13:25 34.942832 -119.691043 198 2152ft 0kts
04-Nov-18 13:26 34.942832 -119.691043 198 2152ft 0kts
04-Nov-18 13:27 34.942832 -119.691043 198 2152ft 0kts
04-Nov-18 13:28 34.942832 -119.691043 198 2152ft 0kts
04-Nov-18 13:29 34.942832 -119.691043 198 2152ft 0kts
04-Nov-18 13:33 34.942793 -119.690969 26 2152ft 0kts
04-Nov-18 13:34 34.942793 -119.690969 26 2152ft 0kts
04-Nov-18 13:35 34.942793 -119.690969 26 2152ft 0kts
04-Nov-18 13:36 34.942793 -119.690969 26 2152ft 0kts

Navigation Log

Ident Type
Flight plan parsing failed, navigation log unavailable